Time;durP1;ratioP1;P1;durP2;ratioP2;P2;SDS_P1;SDS_P2;PMS_P1;PMS_P2;Temp;Humidity;BMP_temperature;BMP_pressure;BME280_temperature;BME280_humidity;BME280_pressure;Samples;Min_cycle;Max_cycle;Signal;HPM_P1;HPM_P2
2024/04/04 00:01:45;;;;;;;9.57;1.73;;;11.20;99.90;;;;;;5073700;28;20043;-76
2024/04/04 00:04:11;;;;;;;5.32;1.88;;;11.20;99.90;;;;;;5074586;28;20059;-75
2024/04/04 00:06:37;;;;;;;6.38;1.30;;;11.10;99.90;;;;;;5073536;28;20420;-75
2024/04/04 00:09:03;;;;;;;6.45;1.40;;;11.10;99.90;;;;;;5074230;28;20110;-75
2024/04/04 00:11:28;;;;;;;7.13;1.27;;;11.00;99.90;;;;;;5073433;28;20020;-75
2024/04/04 00:13:54;;;;;;;8.32;1.60;;;11.00;99.90;;;;;;5074099;28;20087;-76
2024/04/04 00:16:20;;;;;;;13.10;2.15;;;10.90;99.90;;;;;;5073194;28;20029;-75
2024/04/04 00:18:47;;;;;;;7.57;1.58;;;10.90;99.90;;;;;;5074399;28;20044;-76
2024/04/04 00:21:13;;;;;;;5.55;1.10;;;10.80;99.90;;;;;;5073357;28;20079;-75
2024/04/04 00:23:39;;;;;;;5.72;1.80;;;10.80;99.90;;;;;;5074114;28;20024;-76
2024/04/04 00:26:05;;;;;;;6.00;1.60;;;10.70;99.90;;;;;;5073007;28;20021;-75
2024/04/04 00:28:32;;;;;;;6.35;1.73;;;10.70;99.90;;;;;;5074167;28;20103;-75
2024/04/04 00:30:58;;;;;;;7.22;1.38;;;10.70;99.90;;;;;;5073211;28;20100;-75
2024/04/04 00:33:24;;;;;;;7.03;1.38;;;10.60;99.90;;;;;;5073483;28;20171;-76
2024/04/04 00:35:50;;;;;;;6.22;1.08;;;10.60;99.90;;;;;;5072668;28;20017;-76
2024/04/04 00:38:16;;;;;;;6.15;1.52;;;10.60;99.90;;;;;;5073490;28;20056;-75
2024/04/04 00:40:41;;;;;;;7.10;1.58;;;10.50;99.90;;;;;;5071696;28;20166;-76
2024/04/04 00:43:07;;;;;;;7.63;1.42;;;10.50;99.90;;;;;;5073369;28;20029;-75
2024/04/04 00:45:35;;;;;;;5.63;1.30;;;10.40;99.90;;;;;;5073135;28;20029;-75
2024/04/04 00:48:00;;;;;;;6.00;1.20;;;10.40;99.90;;;;;;5073687;28;20031;-75
2024/04/04 00:50:27;;;;;;;9.20;1.70;;;10.40;99.90;;;;;;5072610;28;20127;-75
2024/04/04 00:52:53;;;;;;;5.50;1.40;;;10.40;99.90;;;;;;5073079;28;20505;-76
2024/04/04 00:55:19;;;;;;;5.15;1.50;;;10.40;99.90;;;;;;5072904;28;20016;-76
2024/04/04 00:57:45;;;;;;;9.35;1.65;;;10.30;99.90;;;;;;5073094;28;20039;-76
2024/04/04 01:00:13;;;;;;;5.80;1.25;;;10.30;99.90;;;;;;5072631;28;20020;-75
2024/04/04 01:02:38;;;;;;;7.13;1.30;;;10.30;99.90;;;;;;5073143;28;20059;-76
2024/04/04 01:05:05;;;;;;;10.88;2.08;;;10.30;99.90;;;;;;5072637;28;20044;-75
2024/04/04 01:07:33;;;;;;;9.05;1.42;;;10.30;99.90;;;;;;5072993;28;20070;-76
2024/04/04 01:10:07;;;;;;;9.77;1.55;;;10.30;99.90;;;;;;5072531;28;20031;-76
2024/04/04 01:12:33;;;;;;;4.15;1.50;;;10.30;99.90;;;;;;5072801;28;20016;-75
2024/04/04 01:14:59;;;;;;;6.07;1.42;;;10.40;99.90;;;;;;5072492;28;20092;-75
2024/04/04 01:17:24;;;;;;;7.25;1.40;;;10.40;99.90;;;;;;5072857;28;20081;-75
2024/04/04 01:19:51;;;;;;;6.97;1.33;;;10.40;99.90;;;;;;5073109;28;20474;-76
2024/04/04 01:22:17;;;;;;;6.43;1.20;;;10.40;99.90;;;;;;5072987;28;20009;-75
2024/04/04 01:24:43;;;;;;;10.70;1.75;;;10.40;99.90;;;;;;5071611;28;20048;-76
2024/04/04 01:27:08;;;;;;;7.97;1.80;;;10.40;99.90;;;;;;5072069;28;20028;-76
2024/04/04 01:29:34;;;;;;;9.68;2.10;;;10.50;99.90;;;;;;5072775;28;20413;-77
2024/04/04 01:31:59;;;;;;;6.60;1.20;;;10.50;99.90;;;;;;5070791;28;20024;-76
2024/04/04 01:34:28;;;;;;;7.25;1.40;;;10.50;99.90;;;;;;5072773;28;20024;-75
2024/04/04 01:36:54;;;;;;;6.55;1.40;;;10.50;99.90;;;;;;5071767;28;20067;-76
2024/04/04 01:39:20;;;;;;;5.78;1.48;;;10.50;99.90;;;;;;5072312;28;20390;-75
2024/04/04 01:41:46;;;;;;;4.22;1.20;;;10.40;99.90;;;;;;5070672;28;20025;-75
2024/04/04 01:44:12;;;;;;;7.50;1.92;;;10.40;99.90;;;;;;5072223;28;20074;-75
2024/04/04 01:46:39;;;;;;;6.05;1.50;;;10.40;99.90;;;;;;5069514;28;20652;-75
2024/04/04 01:49:04;;;;;;;8.40;1.98;;;10.40;99.90;;;;;;5072114;28;20486;-75
2024/04/04 01:51:30;;;;;;;4.15;1.02;;;10.30;99.90;;;;;;5070270;28;20044;-75
2024/04/04 01:53:56;;;;;;;8.07;1.63;;;10.30;99.90;;;;;;5070605;28;20032;-75
2024/04/04 01:56:21;;;;;;;6.85;1.52;;;10.40;99.90;;;;;;5071701;28;20020;-76
2024/04/04 01:58:47;;;;;;;7.47;1.42;;;10.30;99.90;;;;;;5072013;28;20390;-76
2024/04/04 02:01:13;;;;;;;5.15;1.20;;;10.30;99.90;;;;;;5071719;28;20028;-75
2024/04/04 02:03:38;;;;;;;7.75;1.30;;;10.40;99.90;;;;;;5071889;28;20025;-75
2024/04/04 02:06:04;;;;;;;6.97;1.58;;;10.40;99.90;;;;;;5071615;28;20043;-76
2024/04/04 02:08:32;;;;;;;7.47;1.73;;;10.40;99.90;;;;;;5071977;28;20035;-76
2024/04/04 02:10:58;;;;;;;5.75;1.40;;;10.40;99.90;;;;;;5071605;28;20032;-76
2024/04/04 02:13:26;;;;;;;11.90;2.38;;;10.40;99.90;;;;;;5072009;28;20028;-76
2024/04/04 02:15:52;;;;;;;7.88;1.73;;;10.40;99.90;;;;;;5071636;28;20044;-75
2024/04/04 02:18:19;;;;;;;7.05;1.50;;;10.40;99.90;;;;;;5072149;28;20081;-76
2024/04/04 02:20:46;;;;;;;5.63;1.30;;;10.40;99.90;;;;;;5071417;28;20047;-75
2024/04/04 02:23:12;;;;;;;6.18;1.35;;;10.40;99.90;;;;;;5071807;28;20462;-75
2024/04/04 02:25:38;;;;;;;8.07;1.48;;;10.40;99.90;;;;;;5071809;28;20059;-75
2024/04/04 02:28:04;;;;;;;5.40;1.35;;;10.40;99.90;;;;;;5072190;28;20401;-75
2024/04/04 02:30:30;;;;;;;10.00;1.75;;;10.40;99.90;;;;;;5071435;28;20044;-75
2024/04/04 02:32:56;;;;;;;6.18;1.40;;;10.40;99.90;;;;;;5071820;28;20071;-76
2024/04/04 02:35:22;;;;;;;7.68;1.40;;;10.40;99.90;;;;;;5070367;28;20032;-75
2024/04/04 02:37:48;;;;;;;10.75;1.58;;;10.40;99.90;;;;;;5070370;28;20017;-75
2024/04/04 02:40:14;;;;;;;6.18;1.30;;;10.40;99.90;;;;;;5071527;28;20046;-76
2024/04/04 02:42:40;;;;;;;8.23;1.55;;;10.40;99.90;;;;;;5071748;28;20066;-76
2024/04/04 02:45:07;;;;;;;9.45;1.70;;;10.40;99.90;;;;;;5071323;28;20023;-75
2024/04/04 02:47:34;;;;;;;7.93;1.80;;;10.40;99.90;;;;;;5070120;28;20108;-75
2024/04/04 02:50:00;;;;;;;3.80;1.10;;;10.40;99.90;;;;;;5071374;28;20045;-75
2024/04/04 02:52:26;;;;;;;8.23;1.67;;;10.40;99.90;;;;;;5069894;28;20029;-76
2024/04/04 02:54:52;;;;;;;5.50;1.60;;;10.40;99.90;;;;;;5071369;28;20056;-76
2024/04/04 02:57:18;;;;;;;10.20;1.70;;;10.40;99.90;;;;;;5071040;28;20048;-76
2024/04/04 02:59:43;;;;;;;9.95;1.65;;;10.50;99.90;;;;;;5075279;28;20027;-76
2024/04/04 03:02:09;;;;;;;8.82;1.80;;;10.50;99.90;;;;;;5075104;28;20021;-75
2024/04/04 03:04:36;;;;;;;5.47;1.40;;;10.50;99.90;;;;;;5075231;28;20020;-75
2024/04/04 03:07:03;;;;;;;4.03;1.13;;;10.50;99.90;;;;;;5074932;28;20032;-75
2024/04/04 03:09:28;;;;;;;5.07;1.25;;;10.50;99.90;;;;;;5075239;28;20036;-76
2024/04/04 03:11:54;;;;;;;6.70;2.15;;;10.50;99.90;;;;;;5074940;28;20033;-75
2024/04/04 03:14:20;;;;;;;6.38;1.52;;;10.50;99.90;;;;;;5074977;28;20017;-75
2024/04/04 03:16:45;;;;;;;6.70;1.48;;;10.50;99.90;;;;;;5074962;28;20021;-75
2024/04/04 03:19:11;;;;;;;5.57;1.38;;;10.50;99.90;;;;;;5079787;28;20020;-77
2024/04/04 03:21:37;;;;;;;5.53;1.42;;;10.50;99.90;;;;;;5084331;28;20066;-75
2024/04/04 03:24:03;;;;;;;5.63;1.50;;;10.40;99.90;;;;;;5083488;28;20029;-76
2024/04/04 03:26:29;;;;;;;6.15;1.42;;;10.40;99.90;;;;;;5081645;28;20089;-76
2024/04/04 03:28:54;;;;;;;6.32;1.63;;;10.40;99.90;;;;;;5083631;28;20266;-75
2024/04/04 03:31:21;;;;;;;10.75;2.20;;;10.40;99.90;;;;;;5081874;28;20079;-75
2024/04/04 03:33:47;;;;;;;6.60;1.63;;;10.40;99.90;;;;;;5083860;28;20054;-74
2024/04/04 03:36:15;;;;;;;3.95;1.20;;;10.40;99.90;;;;;;5083007;28;20020;-75
2024/04/04 03:38:41;;;;;;;7.38;1.67;;;10.40;99.90;;;;;;5081427;28;20025;-75
2024/04/04 03:41:06;;;;;;;8.35;1.42;;;10.40;99.90;;;;;;5079493;28;20085;-76
2024/04/04 03:43:32;;;;;;;5.78;1.65;;;10.40;99.90;;;;;;5082420;28;20024;-75
2024/04/04 03:46:02;;;;;;;7.07;2.13;;;10.40;99.90;;;;;;5080970;28;20035;-76
2024/04/04 03:48:28;;;;;;;5.97;1.80;;;10.40;99.90;;;;;;5083496;28;20036;-75
2024/04/04 03:50:54;;;;;;;5.28;1.80;;;10.40;99.90;;;;;;5079308;28;20041;-75
2024/04/04 03:53:19;;;;;;;8.27;1.63;;;10.40;99.90;;;;;;5076520;28;20111;-75
2024/04/04 03:55:45;;;;;;;6.90;1.98;;;10.30;99.90;;;;;;5075685;28;20386;-75
2024/04/04 03:58:12;;;;;;;6.10;2.10;;;10.30;99.90;;;;;;5074685;28;20013;-74
2024/04/04 04:00:38;;;;;;;6.85;1.90;;;10.30;99.90;;;;;;5074033;28;20432;-75
2024/04/04 04:03:04;;;;;;;7.20;1.70;;;10.30;99.90;;;;;;5074825;28;20017;-75
2024/04/04 04:05:33;;;;;;;5.18;1.70;;;10.30;99.90;;;;;;5074205;28;20082;-74
2024/04/04 04:07:59;;;;;;;6.43;1.73;;;10.30;99.90;;;;;;5074545;28;20025;-74
2024/04/04 04:10:28;;;;;;;6.72;2.03;;;10.30;99.90;;;;;;5073056;28;20048;-74
2024/04/04 04:12:57;;;;;;;6.72;1.85;;;10.30;99.90;;;;;;5074663;28;20127;-75
2024/04/04 04:15:23;;;;;;;3.88;1.75;;;10.30;99.90;;;;;;5074062;28;20493;-75
2024/04/04 04:17:49;;;;;;;7.93;1.98;;;10.30;99.90;;;;;;5072556;28;20012;-75
2024/04/04 04:22:59;;;;;;;8.50;2.20;;;10.30;99.90;;;;;;5074358;28;20082;-75
2024/04/04 04:25:25;;;;;;;5.40;2.00;;;10.30;99.90;;;;;;5073764;28;20028;-75
2024/04/04 04:27:51;;;;;;;7.70;2.85;;;10.30;99.90;;;;;;5073794;28;20021;-75
2024/04/04 04:30:17;;;;;;;6.55;2.50;;;10.30;99.90;;;;;;5073833;28;20024;-75
2024/04/04 04:32:42;;;;;;;4.72;2.85;;;10.40;99.90;;;;;;5073005;28;20542;-75
2024/04/04 04:35:08;;;;;;;7.32;2.40;;;10.40;99.90;;;;;;5073663;28;20024;-75
2024/04/04 04:37:34;;;;;;;8.38;3.10;;;10.40;99.90;;;;;;5073261;28;20023;-75
2024/04/04 04:40:00;;;;;;;8.40;2.92;;;10.50;99.90;;;;;;5073455;28;20474;-75
2024/04/04 04:42:26;;;;;;;7.57;2.67;;;10.50;99.90;;;;;;5073117;28;20099;-75
2024/04/04 04:44:52;;;;;;;6.50;2.97;;;10.60;99.90;;;;;;5073495;28;20027;-75
2024/04/04 04:47:17;;;;;;;7.35;3.03;;;10.60;99.90;;;;;;5072878;28;20028;-75
2024/04/04 04:49:44;;;;;;;10.18;3.00;;;10.70;99.90;;;;;;5072919;28;20115;-73
2024/04/04 04:52:09;;;;;;;7.90;3.55;;;10.70;99.90;;;;;;5072677;28;20477;-75
2024/04/04 04:54:35;;;;;;;11.07;4.47;;;10.80;99.90;;;;;;5073453;28;20032;-75
2024/04/04 04:57:01;;;;;;;11.10;3.20;;;10.80;99.90;;;;;;5072508;28;20024;-76
2024/04/04 04:59:27;;;;;;;7.65;3.28;;;10.80;99.90;;;;;;5073457;28;20021;-75
2024/04/04 05:01:53;;;;;;;9.13;3.55;;;10.80;99.90;;;;;;5072294;28;20027;-75
2024/04/04 05:04:20;;;;;;;7.93;3.38;;;10.80;99.90;;;;;;5073138;28;20158;-76
2024/04/04 05:06:46;;;;;;;7.97;3.63;;;10.90;99.90;;;;;;5072212;28;20044;-76
2024/04/04 05:09:13;;;;;;;14.23;3.78;;;10.90;99.90;;;;;;5073035;28;20078;-75
2024/04/04 05:11:38;;;;;;;9.68;3.35;;;10.90;99.90;;;;;;5072136;28;20025;-75
2024/04/04 05:14:04;;;;;;;9.23;3.35;;;11.00;99.90;;;;;;5072958;28;20386;-75
2024/04/04 05:16:30;;;;;;;10.27;3.63;;;11.00;99.90;;;;;;5072587;28;20013;-75
2024/04/04 05:18:56;;;;;;;13.30;3.80;;;11.00;99.90;;;;;;5073094;28;20016;-76
2024/04/04 05:21:22;;;;;;;9.05;3.45;;;11.00;99.90;;;;;;5072054;28;20048;-75
2024/04/04 05:23:47;;;;;;;6.70;3.40;;;11.10;99.90;;;;;;5073028;28;20389;-75
2024/04/04 05:26:13;;;;;;;8.05;3.63;;;11.10;99.90;;;;;;5071971;28;20021;-75
2024/04/04 05:28:40;;;;;;;8.00;3.55;;;11.10;99.90;;;;;;5072785;28;20461;-75
2024/04/04 05:31:06;;;;;;;6.80;3.10;;;11.20;99.90;;;;;;5071923;28;20032;-75
2024/04/04 05:33:32;;;;;;;8.23;3.55;;;11.20;99.90;;;;;;5072573;28;20051;-75
2024/04/04 05:35:58;;;;;;;8.18;3.42;;;11.20;99.90;;;;;;5071652;28;20483;-76
2024/04/04 05:38:24;;;;;;;9.85;3.70;;;11.20;99.90;;;;;;5072636;28;20016;-75
2024/04/04 05:40:50;;;;;;;10.25;3.17;;;11.20;99.90;;;;;;5071871;28;20028;-76
2024/04/04 05:43:15;;;;;;;6.55;2.90;;;11.30;99.90;;;;;;5072449;28;20020;-75
2024/04/04 05:45:41;;;;;;;8.05;3.83;;;11.30;99.90;;;;;;5072130;28;20024;-75
2024/04/04 05:48:07;;;;;;;8.60;3.50;;;11.30;99.90;;;;;;5071575;28;20025;-75
2024/04/04 05:50:35;;;;;;;16.00;4.05;;;11.40;99.90;;;;;;5072230;28;20124;-75
2024/04/04 05:53:01;;;;;;;8.75;3.53;;;11.40;99.90;;;;;;5071611;28;20056;-75
2024/04/04 05:55:27;;;;;;;10.20;3.22;;;11.40;99.90;;;;;;5072397;28;20486;-76
2024/04/04 05:57:53;;;;;;;12.82;3.40;;;11.50;99.90;;;;;;5071478;28;20454;-75
2024/04/04 06:00:18;;;;;;;8.00;3.10;;;11.50;99.90;;;;;;5070985;28;20515;-75
2024/04/04 06:02:44;;;;;;;9.10;3.42;;;11.50;99.90;;;;;;5071264;28;20032;-75
2024/04/04 06:05:10;;;;;;;11.98;4.05;;;11.50;99.90;;;;;;5072156;28;20021;-76
2024/04/04 06:07:36;;;;;;;12.05;3.50;;;11.50;99.90;;;;;;5071277;28;20035;-76
2024/04/04 06:10:02;;;;;;;13.48;3.58;;;11.60;99.90;;;;;;5072163;28;20095;-75
2024/04/04 06:12:27;;;;;;;12.05;3.67;;;11.60;99.90;;;;;;5071175;28;20012;-76
2024/04/04 06:14:53;;;;;;;9.23;3.40;;;11.60;99.90;;;;;;5072150;28;20091;-76
2024/04/04 06:17:18;;;;;;;9.68;3.13;;;11.60;99.90;;;;;;5071233;28;20017;-76
2024/04/04 06:19:44;;;;;;;8.77;3.28;;;11.70;99.90;;;;;;5072050;28;20012;-77
2024/04/04 06:22:10;;;;;;;10.45;3.30;;;11.70;99.90;;;;;;5071234;28;20021;-76
2024/04/04 06:24:35;;;;;;;13.40;3.47;;;11.70;99.90;;;;;;5071906;28;20024;-76
2024/04/04 06:27:01;;;;;;;11.65;3.30;;;11.80;99.90;;;;;;5071254;28;20063;-76
2024/04/04 06:29:27;;;;;;;12.10;3.20;;;11.80;99.90;;;;;;5072053;28;20023;-76
2024/04/04 06:31:52;;;;;;;10.38;3.22;;;11.80;99.90;;;;;;5071181;28;20509;-76
2024/04/04 06:34:19;;;;;;;8.85;3.28;;;11.80;99.90;;;;;;5075367;28;20123;-76
2024/04/04 06:36:45;;;;;;;10.18;3.33;;;11.80;99.90;;;;;;5075137;28;20529;-76
2024/04/04 06:39:12;;;;;;;11.32;3.25;;;11.90;99.90;;;;;;5076064;28;20067;-76
2024/04/04 06:41:38;;;;;;;13.15;3.72;;;11.90;99.90;;;;;;5075148;28;20021;-76
2024/04/04 06:44:04;;;;;;;9.73;3.60;;;11.90;99.90;;;;;;5074704;28;20025;-76
2024/04/04 06:46:30;;;;;;;10.75;2.95;;;12.00;99.90;;;;;;5075138;28;20107;-76
2024/04/04 06:48:56;;;;;;;7.60;2.80;;;12.00;99.90;;;;;;5075514;28;20040;-81
2024/04/04 06:51:22;;;;;;;9.30;3.25;;;12.00;99.90;;;;;;5074893;28;20094;-76
2024/04/04 06:53:48;;;;;;;11.88;2.88;;;12.10;99.90;;;;;;5075561;28;20028;-76
2024/04/04 06:56:13;;;;;;;8.60;3.42;;;12.10;99.90;;;;;;5075124;28;20063;-76
2024/04/04 06:58:39;;;;;;;8.48;3.13;;;12.10;99.90;;;;;;5075541;28;20016;-76
2024/04/04 07:01:05;;;;;;;10.50;3.22;;;12.10;99.90;;;;;;5074943;28;20012;-75
2024/04/04 07:03:30;;;;;;;12.50;3.78;;;12.10;99.90;;;;;;5075181;28;20038;-75
2024/04/04 07:05:56;;;;;;;9.00;2.78;;;12.10;99.90;;;;;;5075697;28;20097;-75
2024/04/04 07:08:22;;;;;;;11.95;2.85;;;12.10;99.90;;;;;;5073487;28;20021;-75
2024/04/04 07:10:47;;;;;;;9.93;3.00;;;12.20;99.90;;;;;;5074078;28;20025;-75
2024/04/04 07:13:19;;;;;;;9.85;2.60;;;12.20;99.90;;;;;;5074436;28;20067;-75
2024/04/04 07:15:44;;;;;;;6.60;2.35;;;12.20;99.90;;;;;;5075412;28;20381;-75
2024/04/04 07:18:10;;;;;;;7.68;2.25;;;12.20;99.90;;;;;;5074231;28;20017;-75
2024/04/04 07:20:36;;;;;;;11.50;2.75;;;12.30;99.90;;;;;;5075201;28;20035;-75
2024/04/04 07:23:03;;;;;;;12.82;2.72;;;12.30;99.90;;;;;;5072969;28;20020;-75
2024/04/04 07:25:30;;;;;;;8.65;2.40;;;12.30;99.90;;;;;;5075442;28;20024;-75
2024/04/04 07:27:56;;;;;;;10.45;2.30;;;12.30;99.90;;;;;;5074011;28;20048;-76
2024/04/04 07:30:21;;;;;;;5.88;2.20;;;12.40;99.90;;;;;;5074907;28;20493;-75
2024/04/04 07:32:47;;;;;;;7.60;2.13;;;12.40;99.90;;;;;;5073642;28;20063;-75
2024/04/04 07:35:13;;;;;;;4.85;1.90;;;12.40;99.90;;;;;;5075328;28;20055;-76
2024/04/04 07:37:38;;;;;;;7.55;2.20;;;12.40;99.90;;;;;;5074075;28;20059;-75
2024/04/04 07:40:05;;;;;;;8.27;2.00;;;12.40;99.90;;;;;;5075228;28;20035;-75
2024/04/04 07:42:31;;;;;;;6.78;2.08;;;12.50;99.90;;;;;;5074585;28;20024;-75
2024/04/04 07:44:56;;;;;;;6.40;2.00;;;12.50;99.90;;;;;;5074841;28;20126;-75
2024/04/04 07:47:22;;;;;;;6.63;1.80;;;12.50;99.90;;;;;;5072516;28;20490;-75
2024/04/04 07:49:48;;;;;;;7.45;2.42;;;12.50;99.90;;;;;;5074058;28;20029;-75
2024/04/04 07:52:13;;;;;;;8.02;2.28;;;12.50;99.90;;;;;;5074254;28;20042;-75
2024/04/04 07:54:39;;;;;;;7.55;1.92;;;12.50;99.90;;;;;;5074496;28;20379;-75
2024/04/04 07:57:06;;;;;;;7.75;2.30;;;12.50;99.90;;;;;;5073937;28;20474;-75
2024/04/04 07:59:32;;;;;;;7.55;2.05;;;12.50;99.90;;;;;;5074269;28;20025;-75
2024/04/04 08:01:58;;;;;;;14.40;2.58;;;12.50;99.90;;;;;;5073697;28;20103;-75
2024/04/04 08:04:24;;;;;;;5.10;1.70;;;12.50;99.90;;;;;;5074124;28;20107;-75
2024/04/04 08:06:49;;;;;;;8.63;2.05;;;12.60;99.90;;;;;;5073931;28;20025;-74
2024/04/04 08:09:15;;;;;;;9.20;2.00;;;12.60;99.90;;;;;;5074219;28;20028;-75
2024/04/04 08:11:41;;;;;;;5.22;2.03;;;12.60;99.90;;;;;;5074013;28;20377;-75
2024/04/04 08:14:07;;;;;;;7.15;2.28;;;12.60;99.90;;;;;;5073924;28;20099;-75
2024/04/04 08:16:33;;;;;;;5.75;1.75;;;12.60;99.90;;;;;;5073537;28;20047;-74
2024/04/04 08:18:58;;;;;;;6.45;2.08;;;12.60;99.90;;;;;;5073839;28;20025;-75
2024/04/04 08:21:24;;;;;;;4.80;1.85;;;12.60;99.90;;;;;;5073678;28;20055;-75
2024/04/04 08:23:50;;;;;;;6.53;1.75;;;12.60;99.90;;;;;;5073857;28;20031;-74
2024/04/04 08:26:22;;;;;;;9.10;2.47;;;12.60;99.90;;;;;;5072341;28;20028;-74
2024/04/04 08:28:48;;;;;;;7.28;2.38;;;12.60;99.90;;;;;;5072302;28;20020;-74
2024/04/04 08:31:13;;;;;;;6.00;1.75;;;12.60;99.90;;;;;;5073851;28;20116;-74
2024/04/04 08:33:39;;;;;;;6.63;1.60;;;12.60;99.90;;;;;;5073144;28;20051;-74
2024/04/04 08:36:05;;;;;;;5.97;1.83;;;12.60;99.90;;;;;;5074027;28;20078;-74
2024/04/04 08:38:30;;;;;;;8.55;2.17;;;12.60;99.90;;;;;;5072965;28;20373;-74
2024/04/04 08:41:12;;;;;;;6.25;1.90;;;12.60;99.90;;;;;;5073829;28;20021;-74
2024/04/04 08:43:38;;;;;;;6.15;2.20;;;12.60;99.90;;;;;;5072877;28;20032;-74
2024/04/04 08:46:07;;;;;;;7.57;2.03;;;12.60;99.90;;;;;;5073499;28;20053;-74
2024/04/04 08:48:33;;;;;;;4.80;1.88;;;12.70;99.90;;;;;;5072690;28;20177;-75
2024/04/04 08:51:00;;;;;;;4.60;1.73;;;12.70;99.90;;;;;;5073468;28;20041;-75
2024/04/04 08:53:26;;;;;;;4.22;1.67;;;12.60;99.90;;;;;;5072633;28;20085;-75
2024/04/04 08:55:56;;;;;;;9.60;2.45;;;12.60;99.90;;;;;;5072795;28;20107;-75
2024/04/04 08:58:23;;;;;;;6.18;1.60;;;12.70;99.90;;;;;;5071205;28;20470;-75
2024/04/04 09:00:52;;;;;;;5.90;1.83;;;12.70;99.90;;;;;;5073290;28;20385;-75
2024/04/04 09:03:19;;;;;;;5.82;1.95;;;12.70;99.90;;;;;;5072811;28;20028;-75
2024/04/04 09:05:49;;;;;;;7.00;2.20;;;12.70;99.90;;;;;;5073068;28;20060;-75
2024/04/04 09:08:15;;;;;;;3.88;1.83;;;12.70;99.90;;;;;;5072723;28;20055;-75
2024/04/04 09:10:41;;;;;;;5.65;1.75;;;12.80;99.90;;;;;;5072960;28;20024;-75
2024/04/04 09:13:07;;;;;;;5.57;1.60;;;12.70;99.90;;;;;;5072373;28;20378;-76
2024/04/04 09:15:35;;;;;;;9.75;2.13;;;12.80;99.90;;;;;;5072870;28;20024;-75
2024/04/04 09:18:04;;;;;;;9.68;2.20;;;12.80;99.90;;;;;;5072439;28;20470;-74
2024/04/04 09:20:31;;;;;;;6.20;1.88;;;12.80;99.90;;;;;;5072934;28;20073;-75
2024/04/04 09:22:58;;;;;;;6.90;2.08;;;12.80;99.90;;;;;;5072352;28;20028;-75
2024/04/04 09:25:25;;;;;;;7.10;1.98;;;12.90;99.90;;;;;;5072705;28;20024;-74
2024/04/04 09:27:51;;;;;;;6.88;2.13;;;12.90;99.90;;;;;;5072678;28;20040;-76
2024/04/04 09:30:18;;;;;;;6.72;2.03;;;12.90;99.90;;;;;;5072704;28;20039;-75
2024/04/04 09:32:47;;;;;;;5.90;2.25;;;12.90;99.90;;;;;;5072010;28;20028;-76
2024/04/04 09:35:14;;;;;;;6.35;2.00;;;12.90;99.90;;;;;;5072577;28;20513;-76
2024/04/04 09:37:40;;;;;;;5.22;2.15;;;12.90;99.90;;;;;;5072311;28;20016;-77
2024/04/04 09:40:07;;;;;;;5.03;1.95;;;12.90;99.90;;;;;;5072397;28;20470;-76
2024/04/04 09:42:33;;;;;;;3.85;1.60;;;12.90;99.90;;;;;;5072132;28;20059;-76
2024/04/04 09:44:59;;;;;;;5.78;1.70;;;13.00;99.90;;;;;;5072643;28;20028;-76
2024/04/04 09:47:26;;;;;;;5.03;2.03;;;13.00;99.90;;;;;;5072002;28;20444;-76
2024/04/04 09:49:53;;;;;;;8.05;2.40;;;13.00;99.90;;;;;;5072046;28;20499;-75
2024/04/04 09:52:21;;;;;;;4.70;1.90;;;13.00;99.90;;;;;;5071930;28;20440;-75
2024/04/04 09:54:48;;;;;;;5.40;2.10;;;13.00;99.90;;;;;;5072111;28;20082;-76
2024/04/04 09:57:14;;;;;;;4.95;1.85;;;13.00;99.90;;;;;;5071849;28;20025;-76
2024/04/04 09:59:40;;;;;;;4.82;2.00;;;13.00;99.90;;;;;;5072347;28;20021;-75
2024/04/04 10:02:06;;;;;;;7.47;2.10;;;13.00;99.90;;;;;;5071645;28;20047;-76
2024/04/04 10:04:33;;;;;;;5.00;1.85;;;13.00;99.90;;;;;;5072222;28;20073;-76
2024/04/04 10:06:59;;;;;;;9.07;2.00;;;13.10;99.90;;;;;;5071108;28;20133;-76
2024/04/04 10:09:27;;;;;;;5.55;1.80;;;13.20;99.90;;;;;;5071664;28;20509;-75
2024/04/04 10:11:53;;;;;;;5.07;1.38;;;13.20;99.90;;;;;;5071619;28;20169;-75
2024/04/04 10:14:20;;;;;;;4.20;1.50;;;13.20;99.90;;;;;;5072155;28;20447;-76
2024/04/04 10:16:52;;;;;;;5.63;1.60;;;13.20;99.90;;;;;;5071441;28;20055;-76
2024/04/04 10:19:20;;;;;;;3.10;1.60;;;13.10;99.90;;;;;;5072331;28;20101;-76
2024/04/04 10:21:46;;;;;;;4.30;1.40;;;13.00;99.90;;;;;;5071441;28;20585;-75
2024/04/04 10:24:22;;;;;;;3.38;1.63;;;12.90;99.90;;;;;;5071982;28;20025;-75
2024/04/04 10:26:58;;;;;;;4.95;1.60;;;12.80;99.90;;;;;;5071373;28;20040;-75
2024/04/04 10:29:30;;;;;;;4.93;1.48;;;12.90;99.90;;;;;;5072227;28;20099;-75
2024/04/04 10:31:57;;;;;;;2.00;1.40;;;12.90;99.90;;;;;;5071125;28;20043;-75
2024/04/04 10:34:22;;;;;;;4.22;1.55;;;13.00;99.90;;;;;;5072001;28;20029;-75
2024/04/04 10:36:48;;;;;;;2.53;1.33;;;13.20;99.90;;;;;;5070989;28;20103;-74
2024/04/04 10:39:17;;;;;;;6.47;1.67;;;13.20;99.90;;;;;;5072110;28;20013;-75
2024/04/04 10:41:44;;;;;;;4.70;1.83;;;13.40;99.90;;;;;;5071517;28;20025;-74
2024/04/04 10:44:30;;;;;;;4.60;1.80;;;13.40;99.90;;;;;;5071647;28;20024;-74
2024/04/04 10:46:56;;;;;;;6.95;2.33;;;13.50;99.90;;;;;;5070546;28;20041;-74
2024/04/04 10:49:24;;;;;;;6.43;1.88;;;13.60;99.90;;;;;;5071596;28;20486;-75
2024/04/04 10:51:54;;;;;;;4.13;1.70;;;13.60;99.90;;;;;;5070928;28;20048;-75
2024/04/04 10:54:21;;;;;;;6.28;1.73;;;13.70;99.90;;;;;;5071906;28;20490;-76
2024/04/04 10:56:47;;;;;;;7.03;1.48;;;13.70;99.90;;;;;;5070935;28;20028;-75
2024/04/04 10:59:17;;;;;;;4.57;1.65;;;13.80;99.90;;;;;;5071445;28;20024;-75
2024/04/04 11:01:51;;;;;;;2.67;1.03;;;13.90;99.90;;;;;;5070150;28;20017;-75
2024/04/04 11:04:21;;;;;;;3.17;1.10;;;14.00;99.90;;;;;;5071553;28;20024;-74
2024/04/04 11:06:48;;;;;;;2.97;1.20;;;14.10;99.90;;;;;;5071389;28;20504;-74
2024/04/04 11:09:16;;;;;;;5.38;1.30;;;14.30;99.90;;;;;;5071670;28;20028;-77
2024/04/04 11:11:55;;;;;;;5.32;1.25;;;14.30;99.90;;;;;;5070032;28;20507;-74
2024/04/04 11:14:21;;;;;;;3.85;0.88;;;14.40;99.90;;;;;;5070018;28;20028;-75
2024/04/04 11:16:49;;;;;;;4.40;1.00;;;14.50;99.90;;;;;;5071358;28;20048;-75
2024/04/04 11:19:16;;;;;;;2.78;0.82;;;14.60;99.90;;;;;;5072987;28;20028;-78
2024/04/04 11:21:42;;;;;;;5.63;1.10;;;14.60;99.90;;;;;;5075063;28;20023;-75
2024/04/04 11:24:08;;;;;;;3.88;0.93;;;14.70;99.90;;;;;;5074707;28;20033;-75
2024/04/04 11:26:34;;;;;;;5.15;1.05;;;14.80;99.90;;;;;;5074948;28;20054;-75
2024/04/04 11:29:00;;;;;;;5.40;1.35;;;14.90;99.90;;;;;;5074428;28;20367;-75
2024/04/04 11:31:26;;;;;;;5.70;1.10;;;14.90;99.90;;;;;;5074810;28;20485;-76
2024/04/04 11:33:52;;;;;;;6.95;1.23;;;14.80;99.90;;;;;;5074497;28;20033;-76
2024/04/04 11:36:18;;;;;;;6.20;1.50;;;14.80;99.90;;;;;;5074898;28;20021;-77
2024/04/04 11:38:44;;;;;;;6.28;1.23;;;14.80;99.90;;;;;;5074590;28;20017;-76
2024/04/04 11:41:10;;;;;;;4.93;1.30;;;14.90;99.90;;;;;;5073579;28;20039;-76
2024/04/04 11:43:36;;;;;;;6.35;1.50;;;15.00;99.90;;;;;;5073097;28;20032;-76
2024/04/04 11:46:02;;;;;;;6.20;1.20;;;14.90;99.90;;;;;;5075126;28;20033;-76
2024/04/04 11:48:30;;;;;;;6.15;1.20;;;15.00;99.90;;;;;;5074702;28;20021;-75
2024/04/04 11:50:56;;;;;;;7.60;1.50;;;15.00;99.90;;;;;;5074868;28;20052;-76
2024/04/04 11:53:22;;;;;;;8.52;1.23;;;15.10;99.90;;;;;;5074224;28;20498;-76
2024/04/04 11:55:47;;;;;;;7.63;1.40;;;15.10;99.90;;;;;;5074936;28;20099;-76
2024/04/04 11:58:13;;;;;;;5.30;1.40;;;15.20;99.90;;;;;;5073901;28;20516;-76
2024/04/04 12:00:39;;;;;;;9.65;2.17;;;15.20;99.90;;;;;;5074868;28;20016;-76
2024/04/04 12:03:04;;;;;;;6.95;1.60;;;15.20;99.90;;;;;;5073763;28;20017;-76
2024/04/04 12:05:32;;;;;;;11.15;1.77;;;15.20;99.90;;;;;;5074750;28;20020;-77
2024/04/04 12:07:57;;;;;;;9.18;2.05;;;15.20;99.90;;;;;;5073818;28;20512;-77
2024/04/04 12:10:23;;;;;;;6.60;1.35;;;15.20;99.90;;;;;;5074793;28;20024;-76
2024/04/04 12:12:49;;;;;;;8.18;1.30;;;15.20;99.90;;;;;;5073596;28;20048;-77
2024/04/04 12:15:14;;;;;;;7.55;2.10;;;15.30;99.90;;;;;;5074949;28;20021;-78
2024/04/04 12:17:42;;;;;;;7.15;1.30;;;15.40;99.90;;;;;;5074038;28;20020;-76
2024/04/04 12:20:09;;;;;;;10.73;1.67;;;15.60;99.90;;;;;;5074817;28;20444;-76
2024/04/04 12:22:38;;;;;;;7.25;1.33;;;15.70;99.90;;;;;;5073639;28;20013;-77
2024/04/04 12:25:04;;;;;;;7.60;1.90;;;15.80;99.90;;;;;;5074579;28;20063;-79
2024/04/04 12:27:31;;;;;;;7.28;1.40;;;15.70;99.90;;;;;;5073567;28;20074;-77
2024/04/04 12:29:57;;;;;;;6.63;1.48;;;15.60;99.90;;;;;;5074257;28;20032;-77
2024/04/04 12:32:22;;;;;;;12.02;1.95;;;15.40;99.90;;;;;;5072809;28;20914;-78
2024/04/04 12:34:48;;;;;;;11.88;2.20;;;15.40;99.90;;;;;;5074120;28;20067;-78
2024/04/04 12:37:14;;;;;;;9.10;1.42;;;15.30;99.90;;;;;;5073607;28;20028;-78
2024/04/04 12:39:39;;;;;;;12.07;2.15;;;15.30;99.90;;;;;;5074275;28;20473;-78
2024/04/04 12:42:05;;;;;;;11.80;2.05;;;15.30;99.90;;;;;;5074017;28;20021;-78
2024/04/04 12:44:31;;;;;;;11.13;2.17;;;15.40;99.90;;;;;;5073950;28;20024;-78